Yoshomaru — JD3048 — position and weather

sailwx.info

Track history (hours):
 
Tides and Currents Weather Stations Pressure Air Temp Water Temp Dewpoint Dewpoint Depression Visibility Wind Speed Wind Dir Waves Ship Positions

Yoshomaru

Last reported at 2018-Feb-23 04:58 UTC. Time now 2018-Feb-23 05:02 UTC.
Position N 33°54' E 131°11'.

Length 63 m; draft 4.3 m.

Type: Tanker. MMSI: 431001343.

Date/timePositionNaut miles runAvg speedWind from/ knotsBaromVisibWave heightAir tempDewpointWater temp
2018-Feb-23 04:58N 33°54' E 131°11'0 0.0
2018-Feb-23 04:28N 33°54' E 131°11'0 0.2
2018-Feb-23 03:55N 33°54' E 131°11'0 0.0
2018-Feb-23 03:28N 33°54' E 131°11'0 0.0
2018-Feb-23 02:58N 33°54' E 131°11'0 0.0
2018-Feb-23 02:28N 33°54' E 131°11'0 0.0
2018-Feb-23 01:58N 33°54' E 131°11'0 0.0
2018-Feb-23 01:28N 33°54' E 131°11'0 0.0
2018-Feb-23 00:58N 33°54' E 131°11'0 0.0
2018-Feb-23 00:28N 33°54' E 131°11'0 0.0
2018-Feb-22 23:58N 33°54' E 131°11'0 1.0
2018-Feb-22 23:30N 33°54' E 131°12'510.6
2018-Feb-22 23:00N 33°52' E 131°17'510.8
2018-Feb-22 22:30N 33°51' E 131°24'510.7
2018-Feb-22 22:00N 33°50' E 131°30'510.6
2018-Feb-22 21:30N 33°50' E 131°37'510.5
2018-Feb-22 21:00N 33°49' E 131°43'510.5
2018-Feb-22 20:30N 33°47' E 131°49'710.4
2018-Feb-22 19:48N 33°46' E 131°57'310.5
2018-Feb-22 19:30N 33°46' E 132°01'610.9
2018-Feb-22 18:58N 33°48' E 132°08'610.8
2018-Feb-22 18:25N 33°50' E 132°15'16 9.8
2018-Feb-22 16:48N 33°57' E 132°32'3 9.1
2018-Feb-22 16:26N 33°59' E 132°35'4 9.7
2018-Feb-22 16:00N 34°02' E 132°39'90 9.2
2018-Feb-22 06:15N 34°20' E 134°25'310.6
2018-Feb-22 05:58N 34°19' E 134°28'510.7
2018-Feb-22 05:27N 34°17' E 134°34'6 9.0
2018-Feb-22 04:48N 34°13' E 134°40'510.1
2018-Feb-22 04:17N 34°10' E 134°45'310.7
2018-Feb-22 03:59N 34°09' E 134°48'511.1
2018-Feb-22 03:30N 34°09' E 134°55'611.1
2018-Feb-22 03:00N 34°09' E 135°02'610.9
2018-Feb-22 02:29N 34°09' E 135°08'3 6.5
2018-Feb-22 02:01N 34°09' E 135°12'0 0.0
2018-Feb-22 01:30N 34°09' E 135°12'0 0.0
2018-Feb-22 01:01N 34°09' E 135°12'0 0.0
2018-Feb-22 00:30N 34°09' E 135°12'0 0.0
2018-Feb-22 00:01N 34°09' E 135°12'2 3.1
2018-Feb-21 23:30N 34°09' E 135°10'1 1.2
2018-Feb-21 23:00N 34°09' E 135°10'0 0.1
2018-Feb-21 22:30N 34°09' E 135°10'0 0.1
2018-Feb-21 22:00N 34°09' E 135°10'0 0.1
2018-Feb-21 21:31N 34°09' E 135°10'0 0.0
2018-Feb-21 21:01N 34°09' E 135°10'0 0.0
2018-Feb-21 20:31N 34°09' E 135°10'0 0.1
2018-Feb-21 20:00N 34°09' E 135°10'0 0.0
2018-Feb-21 19:30N 34°09' E 135°10'0 0.1
2018-Feb-21 19:00N 34°09' E 135°10'0 0.0
2018-Feb-21 18:30N 34°09' E 135°10'0 0.0
2018-Feb-21 18:00N 34°09' E 135°10'0 0.0
2018-Feb-21 17:31N 34°09' E 135°10'0 0.1
2018-Feb-21 17:01N 34°09' E 135°10'0 0.1
2018-Feb-21 16:30N 34°09' E 135°10'1 1.5
2018-Feb-21 16:00N 34°09' E 135°09'611.3
2018-Feb-21 15:30N 34°13' E 135°03'510.6
2018-Feb-21 15:01N 34°16' E 134°58'510.1
2018-Feb-21 14:30N 34°21' E 134°59'611.1
2018-Feb-21 14:00N 34°27' E 135°00'510.8
2018-Feb-21 13:30N 34°32' E 135°02'4 8.7
2018-Feb-21 13:00N 34°36' E 135°02'5 9.2
2018-Feb-21 12:31N 34°36' E 134°56'611.2
2018-Feb-21 12:00N 34°33' E 134°50'510.9
2018-Feb-21 11:30N 34°31' E 134°44'610.8
2018-Feb-21 11:00N 34°28' E 134°38'510.7
2018-Feb-21 10:30N 34°27' E 134°32'610.8
2018-Feb-21 09:57N 34°25' E 134°25'18 0.8
2018-Feb-20 11:29N 34°27' E 134°04'1310.6
2018-Feb-20 10:13N 34°25' E 134°20'210.7
2018-Feb-20 10:00N 34°27' E 134°22'510.3
2018-Feb-20 09:30N 34°29' E 134°28'510.8
2018-Feb-20 09:00N 34°30' E 134°34'510.5
2018-Feb-20 08:30N 34°32' E 134°40'510.1
2018-Feb-20 08:00N 34°34' E 134°46'5 9.4
2018-Feb-20 07:31N 34°35' E 134°51'4 8.4
2018-Feb-20 07:01N 34°37' E 134°56'4 8.4
2018-Feb-20 06:30N 34°37' E 135°01'4 8.1
2018-Feb-20 06:00N 34°35' E 135°05'510.1
2018-Feb-20 05:30N 34°30' E 135°04'510.6
2018-Feb-20 05:00N 34°25' E 135°03'510.4
2018-Feb-20 04:30N 34°20' E 135°00'5 9.5
2018-Feb-20 04:00N 34°15' E 135°00'510.5
2018-Feb-20 03:30N 34°12' E 135°05'510.1
2018-Feb-20 03:00N 34°09' E 135°10'2 3.2
2018-Feb-20 02:30N 34°09' E 135°12'0 0.0
2018-Feb-20 01:58N 34°09' E 135°12'0 0.0
2018-Feb-20 01:30N 34°09' E 135°12'0 0.0
2018-Feb-20 01:00N 34°09' E 135°12'0 0.0
2018-Feb-20 00:30N 34°09' E 135°12'2 4.0
2018-Feb-20 00:00N 34°09' E 135°10'0 0.0
2018-Feb-19 23:30N 34°09' E 135°10'0 0.0
2018-Feb-19 23:00N 34°09' E 135°10'0 0.0
2018-Feb-19 22:31N 34°09' E 135°10'0 0.0
2018-Feb-19 22:00N 34°09' E 135°10'0 0.0
2018-Feb-19 21:31N 34°09' E 135°10'0 0.0
2018-Feb-19 21:00N 34°09' E 135°10'0 0.0
2018-Feb-19 20:30N 34°09' E 135°10'0 0.0
2018-Feb-19 20:00N 34°09' E 135°10'0 0.0
2018-Feb-19 19:31N 34°09' E 135°10'0 0.0
2018-Feb-19 19:00N 34°09' E 135°10'0 0.0
2018-Feb-19 18:31N 34°09' E 135°10'0 0.0
2018-Feb-19 18:01N 34°09' E 135°10'0 0.0
2018-Feb-19 17:31N 34°09' E 135°10'0 0.0
2018-Feb-19 17:01N 34°09' E 135°10'0 0.0
2018-Feb-19 16:30N 34°09' E 135°10'0 0.1
2018-Feb-19 16:00N 34°09' E 135°10'0 0.0
2018-Feb-19 15:30N 34°09' E 135°10'0 0.1
2018-Feb-19 15:00N 34°09' E 135°10'0 0.1
2018-Feb-19 14:30N 34°09' E 135°10'0 0.0
2018-Feb-19 14:01N 34°09' E 135°10'0 0.1
2018-Feb-19 13:30N 34°09' E 135°10'0 0.0
2018-Feb-19 13:00N 34°09' E 135°10'0 0.1
2018-Feb-19 12:30N 34°09' E 135°10'0 0.0
2018-Feb-19 12:01N 34°09' E 135°10'0 0.1
2018-Feb-19 11:30N 34°09' E 135°10'0 0.0
2018-Feb-19 11:00N 34°09' E 135°10'0 0.1
2018-Feb-19 10:30N 34°09' E 135°10'0 0.0
2018-Feb-19 09:59N 34°09' E 135°10'0 0.0
2018-Feb-19 09:31N 34°09' E 135°10'0 0.0
2018-Feb-19 09:01N 34°09' E 135°10'0 0.0
2018-Feb-19 08:30N 34°09' E 135°10'0 0.0
2018-Feb-19 08:00N 34°09' E 135°10'0 0.0
2018-Feb-19 07:30N 34°09' E 135°10'0 0.0
2018-Feb-19 07:00N 34°09' E 135°10'0 0.0
2018-Feb-19 06:30N 34°09' E 135°10'0 0.0
2018-Feb-19 06:00N 34°09' E 135°10'0 0.0
2018-Feb-19 05:30N 34°09' E 135°10'0 0.1
2018-Feb-19 05:00N 34°09' E 135°10'4 8.9
2018-Feb-19 04:30N 34°12' E 135°06'611.1
2018-Feb-19 04:00N 34°18' E 135°04'611.8
2018-Feb-19 03:30N 34°23' E 135°07'611.3
2018-Feb-19 03:00N 34°27' E 135°12'611.1
2018-Feb-19 02:30N 34°31' E 135°17'611.2
2018-Feb-19 02:00N 34°35' E 135°21'4 7.3
2018-Feb-19 01:30N 34°34' E 135°26'0 0.2
2018-Feb-19 01:00N 34°34' E 135°26'0 0.0
2018-Feb-19 00:31N 34°34' E 135°26'0 0.0
2018-Feb-19 00:00N 34°34' E 135°26'0 0.0
2018-Feb-18 23:30N 34°34' E 135°26'0 0.0
2018-Feb-18 23:00N 34°34' E 135°26'0 0.3
2018-Feb-18 22:30N 34°35' E 135°26'3 5.3
2018-Feb-18 22:00N 34°36' E 135°23'3 6.3
2018-Feb-18 21:31N 34°36' E 135°19'4 8.1
2018-Feb-18 21:01N 34°36' E 135°15'510.9
2018-Feb-18 20:31N 34°35' E 135°08'612.5
2018-Feb-18 20:00N 34°37' E 135°01'713.4
2018-Feb-18 19:30N 34°35' E 134°53'612.3
2018-Feb-18 19:00N 34°32' E 134°46'611.3
2018-Feb-18 18:30N 34°30' E 134°40'611.0
2018-Feb-18 17:59N 34°28' E 134°34'710.6
2018-Feb-18 17:22N 34°25' E 134°26'87 9.5
2018-Feb-18 08:11N 34°00' E 132°46'2 9.6
2018-Feb-18 08:00N 33°59' E 132°45'5 9.4
2018-Feb-18 07:27N 33°54' E 132°42'3 0.1
2018-Feb-16 21:51N 33°51' E 132°43'1 0.1
2018-Feb-16 04:11N 33°52' E 132°42'93 4.3
2018-Feb-15 06:24N 34°18' E 134°30'10 9.9
2018-Feb-15 05:26N 34°13' E 134°40'5 9.4
2018-Feb-15 04:51N 34°10' E 134°45'3 8.4
2018-Feb-15 04:30N 34°09' E 134°48'4 9.0
2018-Feb-15 04:00N 34°09' E 134°54'5 9.2
2018-Feb-15 03:30N 34°10' E 134°59'5 9.2
2018-Feb-15 03:00N 34°09' E 135°05'5 9.3
2018-Feb-15 02:30N 34°09' E 135°10'2 3.0
2018-Feb-15 02:00N 34°09' E 135°12'0 0.0
2018-Feb-15 01:30N 34°09' E 135°12'0 0.0
2018-Feb-15 01:00N 34°09' E 135°12'0 0.0
2018-Feb-15 00:30N 34°09' E 135°12'0 0.0
2018-Feb-15 00:00N 34°09' E 135°12'2 3.9
2018-Feb-14 23:30N 34°09' E 135°10'0 0.4
2018-Feb-14 22:55N 34°09' E 135°10'0 0.1
2018-Feb-14 22:28N 34°09' E 135°10'0 0.0
2018-Feb-14 21:58N 34°09' E 135°10'0 0.0
2018-Feb-14 21:28N 34°09' E 135°10'0 0.0
2018-Feb-14 20:58N 34°09' E 135°10'0 0.0
2018-Feb-14 20:28N 34°09' E 135°10'0 0.0
2018-Feb-14 19:58N 34°09' E 135°10'0 0.0
2018-Feb-14 19:28N 34°09' E 135°10'0 0.0
2018-Feb-14 18:58N 34°09' E 135°10'0 0.0
2018-Feb-14 18:28N 34°09' E 135°10'0 0.1
2018-Feb-14 17:58N 34°09' E 135°10'0 0.0
2018-Feb-14 17:28N 34°09' E 135°10'0 0.1
2018-Feb-14 16:58N 34°09' E 135°10'0 0.1
2018-Feb-14 16:28N 34°09' E 135°10'0 0.1
2018-Feb-14 15:58N 34°09' E 135°10'0 0.0
2018-Feb-14 15:28N 34°09' E 135°10'0 0.0
2018-Feb-14 14:58N 34°09' E 135°10'0 0.0
2018-Feb-14 14:28N 34°09' E 135°10'0 0.0
2018-Feb-14 13:58N 34°09' E 135°10'0 0.0
2018-Feb-14 13:28N 34°09' E 135°10'0 0.0
2018-Feb-14 12:58N 34°09' E 135°10'0 0.0
2018-Feb-14 12:28N 34°09' E 135°10'0 0.0
2018-Feb-14 11:58N 34°09' E 135°10'0 0.0
2018-Feb-14 11:28N 34°09' E 135°10'0 0.0
2018-Feb-14 10:58N 34°09' E 135°10'0 0.0
2018-Feb-14 10:28N 34°09' E 135°10'0 0.0
2018-Feb-14 09:58N 34°09' E 135°10'0 0.0
2018-Feb-14 09:28N 34°09' E 135°10'0 0.0
2018-Feb-14 08:58N 34°09' E 135°10'0 0.0
2018-Feb-14 08:28N 34°09' E 135°10'0 0.0
2018-Feb-14 07:58N 34°09' E 135°10'0 0.1
2018-Feb-14 07:29N 34°09' E 135°10'4 8.9
2018-Feb-14 07:01N 34°09' E 135°04'611.5
2018-Feb-14 06:30N 34°10' E 134°58'611.5
2018-Feb-14 06:00N 34°11' E 134°51'610.9
2018-Feb-14 05:27N 34°10' E 134°43'511.5
2018-Feb-14 04:59N 34°14' E 134°39'511.0
2018-Feb-14 04:29N 34°17' E 134°33'611.3
2018-Feb-14 04:00N 34°19' E 134°27'87 7.3
2018-Feb-13 16:00N 34°04' E 132°43'510.9
2018-Feb-13 15:30N 34°01' E 132°38'610.2
2018-Feb-13 14:53N 33°57' E 132°32'410.5
2018-Feb-13 14:28N 33°54' E 132°28'510.8
2018-Feb-13 13:58N 33°51' E 132°23'510.8
2018-Feb-13 13:30N 33°50' E 132°17'811.1
2018-Feb-13 12:49N 33°48' E 132°08'311.3
2018-Feb-13 12:30N 33°46' E 132°05'811.5
2018-Feb-13 11:47N 33°46' E 131°55'311.8
2018-Feb-13 11:30N 33°47' E 131°51'611.9
2018-Feb-13 11:00N 33°48' E 131°44'611.5
2018-Feb-13 10:30N 33°49' E 131°37'611.5
2018-Feb-13 10:00N 33°50' E 131°30'611.5
2018-Feb-13 09:30N 33°51' E 131°23'611.3
2018-Feb-13 09:00N 33°52' E 131°17'510.6
2018-Feb-13 08:30N 33°55' E 131°12'1 1.7
2018-Feb-13 08:00N 33°56' E 131°11'0 0.0
2018-Feb-13 07:30N 33°56' E 131°11'0 0.0
2018-Feb-13 07:00N 33°56' E 131°11'0 0.0
2018-Feb-13 06:30N 33°56' E 131°11'0 0.2
2018-Feb-13 06:00N 33°56' E 131°11'4 8.0
2018-Feb-13 05:30N 33°53' E 131°14'5 9.7
2018-Feb-13 05:00N 33°52' E 131°20'  
Track history (hours):
 
Tides and Currents Weather Stations Pressure Air Temp Water Temp Dewpoint Dewpoint Depression Visibility Wind Speed Wind Dir Waves Ship Positions

Yoshomaru

Last reported at 2018-Feb-23 04:58 UTC. Time now 2018-Feb-23 05:02 UTC.
Position N 33°54' E 131°11'.

Length 63 m; draft 4.3 m.

Type: Tanker. MMSI: 431001343.

Date/timePositionNaut miles runAvg speedWind from/ knotsBaromVisibWave heightAir tempDewpointWater temp
2018-Feb-23 04:58N 33°54' E 131°11'0 0.0
2018-Feb-23 04:28N 33°54' E 131°11'0 0.2
2018-Feb-23 03:55N 33°54' E 131°11'0 0.0
2018-Feb-23 03:28N 33°54' E 131°11'0 0.0
2018-Feb-23 02:58N 33°54' E 131°11'0 0.0
2018-Feb-23 02:28N 33°54' E 131°11'0 0.0
2018-Feb-23 01:58N 33°54' E 131°11'0 0.0
2018-Feb-23 01:28N 33°54' E 131°11'0 0.0
2018-Feb-23 00:58N 33°54' E 131°11'0 0.0
2018-Feb-23 00:28N 33°54' E 131°11'0 0.0
2018-Feb-22 23:58N 33°54' E 131°11'0 1.0
2018-Feb-22 23:30N 33°54' E 131°12'510.6
2018-Feb-22 23:00N 33°52' E 131°17'510.8
2018-Feb-22 22:30N 33°51' E 131°24'510.7
2018-Feb-22 22:00N 33°50' E 131°30'510.6
2018-Feb-22 21:30N 33°50' E 131°37'510.5
2018-Feb-22 21:00N 33°49' E 131°43'510.5
2018-Feb-22 20:30N 33°47' E 131°49'710.4
2018-Feb-22 19:48N 33°46' E 131°57'310.5
2018-Feb-22 19:30N 33°46' E 132°01'610.9
2018-Feb-22 18:58N 33°48' E 132°08'610.8
2018-Feb-22 18:25N 33°50' E 132°15'16 9.8
2018-Feb-22 16:48N 33°57' E 132°32'3 9.1
2018-Feb-22 16:26N 33°59' E 132°35'4 9.7
2018-Feb-22 16:00N 34°02' E 132°39'90 9.2
2018-Feb-22 06:15N 34°20' E 134°25'310.6
2018-Feb-22 05:58N 34°19' E 134°28'510.7
2018-Feb-22 05:27N 34°17' E 134°34'6 9.0
2018-Feb-22 04:48N 34°13' E 134°40'510.1
2018-Feb-22 04:17N 34°10' E 134°45'310.7
2018-Feb-22 03:59N 34°09' E 134°48'511.1
2018-Feb-22 03:30N 34°09' E 134°55'611.1
2018-Feb-22 03:00N 34°09' E 135°02'610.9
2018-Feb-22 02:29N 34°09' E 135°08'3 6.5
2018-Feb-22 02:01N 34°09' E 135°12'0 0.0
2018-Feb-22 01:30N 34°09' E 135°12'0 0.0
2018-Feb-22 01:01N 34°09' E 135°12'0 0.0
2018-Feb-22 00:30N 34°09' E 135°12'0 0.0
2018-Feb-22 00:01N 34°09' E 135°12'2 3.1
2018-Feb-21 23:30N 34°09' E 135°10'1 1.2
2018-Feb-21 23:00N 34°09' E 135°10'0 0.1
2018-Feb-21 22:30N 34°09' E 135°10'0 0.1
2018-Feb-21 22:00N 34°09' E 135°10'0 0.1
2018-Feb-21 21:31N 34°09' E 135°10'0 0.0
2018-Feb-21 21:01N 34°09' E 135°10'0 0.0
2018-Feb-21 20:31N 34°09' E 135°10'0 0.1
2018-Feb-21 20:00N 34°09' E 135°10'0 0.0
2018-Feb-21 19:30N 34°09' E 135°10'0 0.1
2018-Feb-21 19:00N 34°09' E 135°10'0 0.0
2018-Feb-21 18:30N 34°09' E 135°10'0 0.0
2018-Feb-21 18:00N 34°09' E 135°10'0 0.0
2018-Feb-21 17:31N 34°09' E 135°10'0 0.1
2018-Feb-21 17:01N 34°09' E 135°10'0 0.1
2018-Feb-21 16:30N 34°09' E 135°10'1 1.5
2018-Feb-21 16:00N 34°09' E 135°09'611.3
2018-Feb-21 15:30N 34°13' E 135°03'510.6
2018-Feb-21 15:01N 34°16' E 134°58'510.1
2018-Feb-21 14:30N 34°21' E 134°59'611.1
2018-Feb-21 14:00N 34°27' E 135°00'510.8
2018-Feb-21 13:30N 34°32' E 135°02'4 8.7
2018-Feb-21 13:00N 34°36' E 135°02'5 9.2
2018-Feb-21 12:31N 34°36' E 134°56'611.2
2018-Feb-21 12:00N 34°33' E 134°50'510.9
2018-Feb-21 11:30N 34°31' E 134°44'610.8
2018-Feb-21 11:00N 34°28' E 134°38'510.7
2018-Feb-21 10:30N 34°27' E 134°32'610.8
2018-Feb-21 09:57N 34°25' E 134°25'18 0.8
2018-Feb-20 11:29N 34°27' E 134°04'1310.6
2018-Feb-20 10:13N 34°25' E 134°20'210.7
2018-Feb-20 10:00N 34°27' E 134°22'510.3
2018-Feb-20 09:30N 34°29' E 134°28'510.8
2018-Feb-20 09:00N 34°30' E 134°34'510.5
2018-Feb-20 08:30N 34°32' E 134°40'510.1
2018-Feb-20 08:00N 34°34' E 134°46'5 9.4
2018-Feb-20 07:31N 34°35' E 134°51'4 8.4
2018-Feb-20 07:01N 34°37' E 134°56'4 8.4
2018-Feb-20 06:30N 34°37' E 135°01'4 8.1
2018-Feb-20 06:00N 34°35' E 135°05'510.1
2018-Feb-20 05:30N 34°30' E 135°04'510.6
2018-Feb-20 05:00N 34°25' E 135°03'510.4
2018-Feb-20 04:30N 34°20' E 135°00'5 9.5
2018-Feb-20 04:00N 34°15' E 135°00'510.5
2018-Feb-20 03:30N 34°12' E 135°05'510.1
2018-Feb-20 03:00N 34°09' E 135°10'2 3.2
2018-Feb-20 02:30N 34°09' E 135°12'0 0.0
2018-Feb-20 01:58N 34°09' E 135°12'0 0.0
2018-Feb-20 01:30N 34°09' E 135°12'0 0.0
2018-Feb-20 01:00N 34°09' E 135°12'0 0.0
2018-Feb-20 00:30N 34°09' E 135°12'2 4.0
2018-Feb-20 00:00N 34°09' E 135°10'0 0.0
2018-Feb-19 23:30N 34°09' E 135°10'0 0.0
2018-Feb-19 23:00N 34°09' E 135°10'0 0.0
2018-Feb-19 22:31N 34°09' E 135°10'0 0.0
2018-Feb-19 22:00N 34°09' E 135°10'0 0.0
2018-Feb-19 21:31N 34°09' E 135°10'0 0.0
2018-Feb-19 21:00N 34°09' E 135°10'0 0.0
2018-Feb-19 20:30N 34°09' E 135°10'0 0.0
2018-Feb-19 20:00N 34°09' E 135°10'0 0.0
2018-Feb-19 19:31N 34°09' E 135°10'0 0.0
2018-Feb-19 19:00N 34°09' E 135°10'0 0.0
2018-Feb-19 18:31N 34°09' E 135°10'0 0.0
2018-Feb-19 18:01N 34°09' E 135°10'0 0.0
2018-Feb-19 17:31N 34°09' E 135°10'0 0.0
2018-Feb-19 17:01N 34°09' E 135°10'0 0.0
2018-Feb-19 16:30N 34°09' E 135°10'0 0.1
2018-Feb-19 16:00N 34°09' E 135°10'0 0.0
2018-Feb-19 15:30N 34°09' E 135°10'0 0.1
2018-Feb-19 15:00N 34°09' E 135°10'0 0.1
2018-Feb-19 14:30N 34°09' E 135°10'0 0.0
2018-Feb-19 14:01N 34°09' E 135°10'0 0.1
2018-Feb-19 13:30N 34°09' E 135°10'0 0.0
2018-Feb-19 13:00N 34°09' E 135°10'0 0.1
2018-Feb-19 12:30N 34°09' E 135°10'0 0.0
2018-Feb-19 12:01N 34°09' E 135°10'0 0.1
2018-Feb-19 11:30N 34°09' E 135°10'0 0.0
2018-Feb-19 11:00N 34°09' E 135°10'0 0.1
2018-Feb-19 10:30N 34°09' E 135°10'0 0.0
2018-Feb-19 09:59N 34°09' E 135°10'0 0.0
2018-Feb-19 09:31N 34°09' E 135°10'0 0.0
2018-Feb-19 09:01N 34°09' E 135°10'0 0.0
2018-Feb-19 08:30N 34°09' E 135°10'0 0.0
2018-Feb-19 08:00N 34°09' E 135°10'0 0.0
2018-Feb-19 07:30N 34°09' E 135°10'0 0.0
2018-Feb-19 07:00N 34°09' E 135°10'0 0.0
2018-Feb-19 06:30N 34°09' E 135°10'0 0.0
2018-Feb-19 06:00N 34°09' E 135°10'0 0.0
2018-Feb-19 05:30N 34°09' E 135°10'0 0.1
2018-Feb-19 05:00N 34°09' E 135°10'4 8.9
2018-Feb-19 04:30N 34°12' E 135°06'611.1
2018-Feb-19 04:00N 34°18' E 135°04'611.8
2018-Feb-19 03:30N 34°23' E 135°07'611.3
2018-Feb-19 03:00N 34°27' E 135°12'611.1
2018-Feb-19 02:30N 34°31' E 135°17'611.2
2018-Feb-19 02:00N 34°35' E 135°21'4 7.3
2018-Feb-19 01:30N 34°34' E 135°26'0 0.2
2018-Feb-19 01:00N 34°34' E 135°26'0 0.0
2018-Feb-19 00:31N 34°34' E 135°26'0 0.0
2018-Feb-19 00:00N 34°34' E 135°26'0 0.0
2018-Feb-18 23:30N 34°34' E 135°26'0 0.0
2018-Feb-18 23:00N 34°34' E 135°26'0 0.3
2018-Feb-18 22:30N 34°35' E 135°26'3 5.3
2018-Feb-18 22:00N 34°36' E 135°23'3 6.3
2018-Feb-18 21:31N 34°36' E 135°19'4 8.1
2018-Feb-18 21:01N 34°36' E 135°15'510.9
2018-Feb-18 20:31N 34°35' E 135°08'612.5
2018-Feb-18 20:00N 34°37' E 135°01'713.4
2018-Feb-18 19:30N 34°35' E 134°53'612.3
2018-Feb-18 19:00N 34°32' E 134°46'611.3
2018-Feb-18 18:30N 34°30' E 134°40'611.0
2018-Feb-18 17:59N 34°28' E 134°34'710.6
2018-Feb-18 17:22N 34°25' E 134°26'87 9.5
2018-Feb-18 08:11N 34°00' E 132°46'2 9.6
2018-Feb-18 08:00N 33°59' E 132°45'5 9.4
2018-Feb-18 07:27N 33°54' E 132°42'3 0.1
2018-Feb-16 21:51N 33°51' E 132°43'1 0.1
2018-Feb-16 04:11N 33°52' E 132°42'93 4.3
2018-Feb-15 06:24N 34°18' E 134°30'10 9.9
2018-Feb-15 05:26N 34°13' E 134°40'5 9.4
2018-Feb-15 04:51N 34°10' E 134°45'3 8.4
2018-Feb-15 04:30N 34°09' E 134°48'4 9.0
2018-Feb-15 04:00N 34°09' E 134°54'5 9.2
2018-Feb-15 03:30N 34°10' E 134°59'5 9.2
2018-Feb-15 03:00N 34°09' E 135°05'5 9.3
2018-Feb-15 02:30N 34°09' E 135°10'2 3.0
2018-Feb-15 02:00N 34°09' E 135°12'0 0.0
2018-Feb-15 01:30N 34°09' E 135°12'0 0.0
2018-Feb-15 01:00N 34°09' E 135°12'0 0.0
2018-Feb-15 00:30N 34°09' E 135°12'0 0.0
2018-Feb-15 00:00N 34°09' E 135°12'2 3.9
2018-Feb-14 23:30N 34°09' E 135°10'0 0.4
2018-Feb-14 22:55N 34°09' E 135°10'0 0.1
2018-Feb-14 22:28N 34°09' E 135°10'0 0.0
2018-Feb-14 21:58N 34°09' E 135°10'0 0.0
2018-Feb-14 21:28N 34°09' E 135°10'0 0.0
2018-Feb-14 20:58N 34°09' E 135°10'0 0.0
2018-Feb-14 20:28N 34°09' E 135°10'0 0.0
2018-Feb-14 19:58N 34°09' E 135°10'0 0.0
2018-Feb-14 19:28N 34°09' E 135°10'0 0.0
2018-Feb-14 18:58N 34°09' E 135°10'0 0.0
2018-Feb-14 18:28N 34°09' E 135°10'0 0.1
2018-Feb-14 17:58N 34°09' E 135°10'0 0.0
2018-Feb-14 17:28N 34°09' E 135°10'0 0.1
2018-Feb-14 16:58N 34°09' E 135°10'0 0.1
2018-Feb-14 16:28N 34°09' E 135°10'0 0.1
2018-Feb-14 15:58N 34°09' E 135°10'0 0.0
2018-Feb-14 15:28N 34°09' E 135°10'0 0.0
2018-Feb-14 14:58N 34°09' E 135°10'0 0.0
2018-Feb-14 14:28N 34°09' E 135°10'0 0.0
2018-Feb-14 13:58N 34°09' E 135°10'0 0.0
2018-Feb-14 13:28N 34°09' E 135°10'0 0.0
2018-Feb-14 12:58N 34°09' E 135°10'0 0.0
2018-Feb-14 12:28N 34°09' E 135°10'0 0.0
2018-Feb-14 11:58N 34°09' E 135°10'0 0.0
2018-Feb-14 11:28N 34°09' E 135°10'0 0.0
2018-Feb-14 10:58N 34°09' E 135°10'0 0.0
2018-Feb-14 10:28N 34°09' E 135°10'0 0.0
2018-Feb-14 09:58N 34°09' E 135°10'0 0.0
2018-Feb-14 09:28N 34°09' E 135°10'0 0.0
2018-Feb-14 08:58N 34°09' E 135°10'0 0.0
2018-Feb-14 08:28N 34°09' E 135°10'0 0.0
2018-Feb-14 07:58N 34°09' E 135°10'0 0.1
2018-Feb-14 07:29N 34°09' E 135°10'4 8.9
2018-Feb-14 07:01N 34°09' E 135°04'611.5
2018-Feb-14 06:30N 34°10' E 134°58'611.5
2018-Feb-14 06:00N 34°11' E 134°51'610.9
2018-Feb-14 05:27N 34°10' E 134°43'511.5
2018-Feb-14 04:59N 34°14' E 134°39'511.0
2018-Feb-14 04:29N 34°17' E 134°33'611.3
2018-Feb-14 04:00N 34°19' E 134°27'87 7.3
2018-Feb-13 16:00N 34°04' E 132°43'510.9
2018-Feb-13 15:30N 34°01' E 132°38'610.2
2018-Feb-13 14:53N 33°57' E 132°32'410.5
2018-Feb-13 14:28N 33°54' E 132°28'510.8
2018-Feb-13 13:58N 33°51' E 132°23'510.8
2018-Feb-13 13:30N 33°50' E 132°17'811.1
2018-Feb-13 12:49N 33°48' E 132°08'311.3
2018-Feb-13 12:30N 33°46' E 132°05'811.5
2018-Feb-13 11:47N 33°46' E 131°55'311.8
2018-Feb-13 11:30N 33°47' E 131°51'611.9
2018-Feb-13 11:00N 33°48' E 131°44'611.5
2018-Feb-13 10:30N 33°49' E 131°37'611.5
2018-Feb-13 10:00N 33°50' E 131°30'611.5
2018-Feb-13 09:30N 33°51' E 131°23'611.3
2018-Feb-13 09:00N 33°52' E 131°17'510.6
2018-Feb-13 08:30N 33°55' E 131°12'1 1.7
2018-Feb-13 08:00N 33°56' E 131°11'0 0.0
2018-Feb-13 07:30N 33°56' E 131°11'0 0.0
2018-Feb-13 07:00N 33°56' E 131°11'0 0.0
2018-Feb-13 06:30N 33°56' E 131°11'0 0.2
2018-Feb-13 06:00N 33°56' E 131°11'4 8.0
2018-Feb-13 05:30N 33°53' E 131°14'5 9.7
2018-Feb-13 05:00N 33°52' E 131°20'  

Dump ship's entire track history